Time;durP1;ratioP1;P1;durP2;ratioP2;P2;SDS_P1;SDS_P2;PMS_P1;PMS_P2;Temp;Humidity;BMP_temperature;BMP_pressure;BME280_temperature;BME280_humidity;BME280_pressure;Samples;Min_cycle;Max_cycle;Signal;HPM_P1;HPM_P2
2023/01/21 00:02:23;;;;;;;12.32;8.73;;;5.90;99.90;;;;;;5013093;28;20049;-70
2023/01/21 00:04:52;;;;;;;10.15;8.52;;;5.90;99.90;;;;;;5024601;28;20045;-74
2023/01/21 00:07:20;;;;;;;11.93;8.70;;;6.00;99.90;;;;;;5036828;28;20052;-74
2023/01/21 00:09:53;;;;;;;10.70;8.25;;;6.00;99.90;;;;;;5041192;28;20033;-72
2023/01/21 00:12:20;;;;;;;10.95;8.90;;;6.00;99.90;;;;;;5022238;28;20416;-71
2023/01/21 00:14:51;;;;;;;12.88;9.25;;;6.10;99.90;;;;;;5041323;28;20053;-72
2023/01/21 00:17:22;;;;;;;11.52;9.10;;;6.00;99.90;;;;;;5049506;28;20033;-72
2023/01/21 00:19:49;;;;;;;11.15;8.75;;;5.90;99.90;;;;;;5020252;28;20511;-71
2023/01/21 00:22:17;;;;;;;10.38;8.85;;;5.90;99.90;;;;;;5012164;28;20432;-70
2023/01/21 00:24:44;;;;;;;13.25;8.65;;;5.80;99.90;;;;;;5037820;28;20048;-72
2023/01/21 00:27:11;;;;;;;12.48;9.00;;;5.80;99.90;;;;;;5013124;28;20057;-73
2023/01/21 00:29:38;;;;;;;10.40;8.15;;;5.80;99.90;;;;;;5024077;28;20385;-69
2023/01/21 00:32:06;;;;;;;10.27;8.55;;;5.90;99.90;;;;;;5032621;28;20597;-70
2023/01/21 00:34:33;;;;;;;10.05;8.35;;;6.00;99.90;;;;;;5031592;28;20080;-69
2023/01/21 00:37:00;;;;;;;10.00;8.40;;;6.00;99.90;;;;;;5011916;28;20092;-69
2023/01/21 00:39:27;;;;;;;10.65;8.30;;;6.00;99.90;;;;;;5008859;28;20060;-69
2023/01/21 00:41:54;;;;;;;11.85;8.60;;;6.10;99.90;;;;;;5002512;28;20470;-70
2023/01/21 00:44:22;;;;;;;10.55;8.30;;;5.90;99.90;;;;;;5032401;28;20906;-71
2023/01/21 00:46:49;;;;;;;9.82;8.23;;;5.80;99.90;;;;;;5044324;28;20045;-70
2023/01/21 00:49:17;;;;;;;14.70;8.00;;;5.90;99.90;;;;;;5031589;28;20048;-70
2023/01/21 00:51:44;;;;;;;10.00;8.02;;;6.10;99.90;;;;;;5011330;28;20030;-70
2023/01/21 00:54:12;;;;;;;11.32;8.77;;;6.20;99.90;;;;;;5009330;28;20063;-70
2023/01/21 00:56:39;;;;;;;10.07;8.63;;;6.30;99.90;;;;;;5039448;28;20134;-70
2023/01/21 00:59:07;;;;;;;9.82;8.27;;;6.30;99.90;;;;;;5036234;28;20099;-72
2023/01/21 01:01:37;;;;;;;11.90;8.30;;;6.40;99.90;;;;;;5030297;28;20121;-71
2023/01/21 01:04:05;;;;;;;10.35;8.40;;;6.40;99.90;;;;;;5046182;28;20061;-69
2023/01/21 01:06:32;;;;;;;10.90;8.20;;;6.40;99.90;;;;;;5043393;28;20095;-69
2023/01/21 01:09:00;;;;;;;9.55;8.13;;;6.30;99.90;;;;;;5032447;28;20099;-70
2023/01/21 01:11:28;;;;;;;11.07;8.52;;;6.30;99.90;;;;;;5032391;28;20041;-70
2023/01/21 01:13:57;;;;;;;12.80;8.88;;;6.40;99.90;;;;;;5030342;28;20512;-73
2023/01/21 01:16:32;;;;;;;11.52;8.85;;;6.20;99.90;;;;;;5031909;28;20488;-71
2023/01/21 01:18:59;;;;;;;11.40;8.65;;;6.30;99.90;;;;;;5030811;28;20052;-71
2023/01/21 01:21:27;;;;;;;11.48;9.25;;;6.10;99.90;;;;;;5030509;28;20699;-71
2023/01/21 01:23:54;;;;;;;11.77;8.18;;;6.30;99.90;;;;;;5031904;28;20500;-74
2023/01/21 01:26:24;;;;;;;10.23;8.55;;;6.30;99.90;;;;;;5038994;23;20045;-69
2023/01/21 01:28:52;;;;;;;16.95;9.07;;;6.30;99.90;;;;;;5015561;28;20091;-70
2023/01/21 01:31:19;;;;;;;13.73;10.20;;;6.30;99.90;;;;;;5039520;22;20431;-69
2023/01/21 01:33:47;;;;;;;12.43;9.38;;;6.30;99.90;;;;;;5030328;28;20186;-71
2023/01/21 01:36:17;;;;;;;11.88;9.15;;;6.40;99.90;;;;;;5017638;28;20042;-69
2023/01/21 01:38:45;;;;;;;13.98;9.07;;;6.40;99.90;;;;;;5025923;28;20038;-69
2023/01/21 01:41:21;;;;;;;12.00;9.13;;;6.30;99.90;;;;;;5035705;28;20064;-69
2023/01/21 01:43:52;;;;;;;12.50;8.88;;;6.20;99.90;;;;;;5030124;28;20062;-69
2023/01/21 01:46:21;;;;;;;13.63;9.80;;;6.30;99.90;;;;;;5030052;28;20585;-69
2023/01/21 01:49:12;;;;;;;10.30;8.73;;;6.30;99.90;;;;;;5040430;28;20045;-70
2023/01/21 01:52:00;;;;;;;11.50;8.82;;;6.20;99.90;;;;;;5018464;28;20067;-70
2023/01/21 01:54:34;;;;;;;12.90;9.15;;;6.10;99.90;;;;;;5030308;28;20471;-70
2023/01/21 01:57:05;;;;;;;11.35;9.02;;;6.00;99.90;;;;;;5030154;28;20045;-71
2023/01/21 01:59:36;;;;;;;14.20;9.98;;;6.10;99.90;;;;;;5024017;28;20136;-70
2023/01/21 02:02:07;;;;;;;13.73;9.60;;;6.20;99.90;;;;;;5035123;28;20037;-72
2023/01/21 02:04:51;;;;;;;12.23;9.07;;;6.20;99.90;;;;;;5045383;28;20041;-70
2023/01/21 02:07:25;;;;;;;13.65;8.52;;;5.80;99.90;;;;;;5039226;28;20045;-71
2023/01/21 02:09:52;;;;;;;13.32;8.68;;;5.70;99.90;;;;;;5023820;28;20080;-71
2023/01/21 02:12:21;;;;;;;13.50;9.52;;;5.60;99.90;;;;;;5033125;28;20069;-71
2023/01/21 02:14:49;;;;;;;11.30;8.80;;;5.50;99.90;;;;;;5012167;28;20387;-70
2023/01/21 02:17:43;;;;;;;11.18;9.00;;;5.60;99.90;;;;;;5010272;28;20042;-70
2023/01/21 02:20:45;;;;;;;12.43;8.40;;;5.90;99.90;;;;;;5010334;28;20048;-71
2023/01/21 02:23:39;;;;;;;14.10;9.18;;;6.20;99.90;;;;;;5029922;28;20471;-70
2023/01/21 02:26:36;;;;;;;14.20;9.65;;;6.30;99.90;;;;;;4999684;28;20046;-71
2023/01/21 02:29:31;;;;;;;11.38;8.75;;;6.30;99.90;;;;;;5002414;28;20552;-70
2023/01/21 02:32:36;;;;;;;12.40;9.73;;;6.10;99.90;;;;;;5012363;28;20425;-71
2023/01/21 02:35:23;;;;;;;14.60;10.27;;;6.10;99.90;;;;;;5011169;28;20053;-71
2023/01/21 02:38:01;;;;;;;10.85;8.95;;;6.20;99.90;;;;;;5021854;28;20052;-71
2023/01/21 02:40:38;;;;;;;11.43;9.13;;;6.20;99.90;;;;;;5017213;28;20041;-70
2023/01/21 02:43:24;;;;;;;14.27;9.93;;;6.20;99.90;;;;;;5015388;28;20054;-71
2023/01/21 02:46:08;;;;;;;15.95;9.90;;;6.10;99.90;;;;;;5010289;28;20068;-71
2023/01/21 02:48:40;;;;;;;14.77;10.18;;;6.20;99.90;;;;;;5012785;28;20042;-69
2023/01/21 02:51:07;;;;;;;14.40;10.98;;;5.70;99.90;;;;;;4998840;28;20092;-69
2023/01/21 02:53:35;;;;;;;16.88;10.95;;;5.40;99.90;;;;;;5008936;28;20136;-68
2023/01/21 02:56:16;;;;;;;17.13;11.30;;;5.20;99.90;;;;;;5013275;28;20046;-69
2023/01/21 02:58:49;;;;;;;14.85;11.75;;;5.40;99.90;;;;;;4997513;28;20049;-69
2023/01/21 03:01:46;;;;;;;16.00;12.30;;;5.60;99.90;;;;;;5010056;28;20046;-71
2023/01/21 03:04:44;;;;;;;21.20;12.65;;;5.50;99.90;;;;;;5022763;28;20133;-70
2023/01/21 03:07:33;;;;;;;18.60;12.25;;;5.50;99.90;;;;;;5026579;28;20057;-71
2023/01/21 03:10:07;;;;;;;16.75;12.20;;;5.60;99.90;;;;;;5023960;28;20148;-69
2023/01/21 03:12:52;;;;;;;17.33;12.68;;;5.80;99.90;;;;;;5015480;28;20641;-69
2023/01/21 03:18:30;;;;;;;16.20;13.02;;;5.30;99.90;;;;;;5014713;28;20045;-68
2023/01/21 03:21:05;;;;;;;20.95;14.43;;;5.20;99.90;;;;;;5021787;28;20488;-69
2023/01/21 03:23:37;;;;;;;22.30;14.20;;;5.20;99.90;;;;;;5018772;28;20385;-71
2023/01/21 03:26:08;;;;;;;18.08;13.52;;;5.10;99.90;;;;;;5011718;28;20121;-71
2023/01/21 03:28:40;;;;;;;17.85;14.18;;;5.00;99.90;;;;;;5009825;28;20046;-71
2023/01/21 03:31:35;;;;;;;19.52;13.85;;;5.20;99.90;;;;;;5008618;28;20107;-70
2023/01/21 03:34:08;;;;;;;20.20;14.80;;;5.30;99.90;;;;;;5004526;28;20086;-71
2023/01/21 03:36:51;;;;;;;20.80;14.68;;;5.40;99.90;;;;;;5049660;23;20142;-72
2023/01/21 03:39:33;;;;;;;20.90;14.98;;;5.50;99.90;;;;;;5033898;28;20045;-71
2023/01/21 03:42:01;;;;;;;18.27;13.90;;;5.70;99.90;;;;;;5021812;28;20116;-69
2023/01/21 03:44:29;;;;;;;19.60;14.60;;;5.80;99.90;;;;;;5032052;28;20049;-71
2023/01/21 03:47:27;;;;;;;19.35;14.23;;;6.00;99.90;;;;;;5033578;28;20566;-70
2023/01/21 03:50:04;;;;;;;21.23;13.52;;;6.10;99.90;;;;;;5032105;28;20095;-68
2023/01/21 03:52:31;;;;;;;20.77;14.35;;;5.90;99.90;;;;;;5031255;28;20037;-71
2023/01/21 03:54:59;;;;;;;19.85;14.50;;;6.00;99.90;;;;;;5032485;28;20053;-70
2023/01/21 03:57:26;;;;;;;22.58;14.38;;;6.00;99.90;;;;;;5033490;28;20484;-72
2023/01/21 03:59:55;;;;;;;19.85;12.65;;;6.10;99.90;;;;;;5032968;28;20048;-71
2023/01/21 04:02:22;;;;;;;18.30;12.65;;;6.20;99.90;;;;;;5006481;28;20056;-72
2023/01/21 04:04:51;;;;;;;18.33;12.85;;;6.20;99.90;;;;;;5032302;28;20041;-70
2023/01/21 04:07:19;;;;;;;18.60;13.65;;;6.20;99.90;;;;;;5032913;28;20542;-71
2023/01/21 04:09:48;;;;;;;18.20;13.25;;;6.40;99.90;;;;;;5012619;28;20104;-71
2023/01/21 04:12:16;;;;;;;18.83;12.52;;;6.20;99.90;;;;;;5027683;28;20042;-71
2023/01/21 04:14:43;;;;;;;18.65;13.40;;;6.20;99.90;;;;;;5014062;28;20121;-71
2023/01/21 04:17:10;;;;;;;16.90;12.93;;;6.30;99.90;;;;;;4996070;28;20062;-71
2023/01/21 04:19:37;;;;;;;19.83;13.00;;;6.20;99.90;;;;;;5021602;28;20052;-71
2023/01/21 04:22:05;;;;;;;17.50;11.50;;;6.30;99.90;;;;;;5002357;28;20065;-70
2023/01/21 04:24:34;;;;;;;17.85;12.65;;;6.40;99.90;;;;;;5012251;28;20077;-72
2023/01/21 04:27:04;;;;;;;16.75;11.93;;;6.40;99.90;;;;;;5013087;28;20034;-72
2023/01/21 04:29:31;;;;;;;19.23;12.88;;;6.40;99.90;;;;;;4995946;28;20141;-71
2023/01/21 04:32:01;;;;;;;21.58;12.73;;;6.30;99.90;;;;;;5001248;28;20046;-70
2023/01/21 04:34:31;;;;;;;20.10;13.02;;;6.10;99.90;;;;;;5000450;28;20467;-71
2023/01/21 04:36:59;;;;;;;;;;;6.00;99.90;;;;;;5017278;28;20049;-72
2023/01/21 04:39:26;;;;;;;18.77;12.32;;;6.20;99.90;;;;;;5019772;28;19925;-68
2023/01/21 04:41:53;;;;;;;16.95;12.30;;;6.30;99.90;;;;;;5011594;28;20046;-69
2023/01/21 04:44:21;;;;;;;15.55;11.48;;;6.20;99.90;;;;;;5011741;28;20046;-71
2023/01/21 04:46:48;;;;;;;16.23;12.13;;;6.10;99.90;;;;;;5013178;28;20049;-72
2023/01/21 04:49:15;;;;;;;14.90;12.43;;;6.20;99.90;;;;;;5010381;28;20046;-71
2023/01/21 04:51:44;;;;;;;16.92;11.75;;;6.40;99.90;;;;;;4995897;28;20459;-72
2023/01/21 04:54:12;;;;;;;18.50;12.00;;;6.50;99.90;;;;;;5012658;28;20041;-68
2023/01/21 04:56:39;;;;;;;19.48;12.13;;;6.40;99.90;;;;;;4995572;28;20402;-70
2023/01/21 04:59:07;;;;;;;17.55;12.52;;;6.40;99.90;;;;;;5025643;28;20034;-70
2023/01/21 05:01:36;;;;;;;16.23;12.65;;;6.20;99.90;;;;;;5005223;28;20398;-72
2023/01/21 05:04:06;;;;;;;19.73;12.85;;;6.30;99.90;;;;;;5012432;28;20038;-72
2023/01/21 05:06:35;;;;;;;19.92;12.48;;;6.30;99.90;;;;;;5012754;28;20049;-71
2023/01/21 05:09:03;;;;;;;18.40;11.90;;;6.30;99.90;;;;;;5012361;28;20050;-72
2023/01/21 05:11:30;;;;;;;20.13;12.85;;;6.40;99.90;;;;;;5011543;28;20446;-71
2023/01/21 05:13:58;;;;;;;15.00;12.32;;;6.50;99.90;;;;;;5008088;28;20056;-70
2023/01/21 05:16:25;;;;;;;21.27;14.32;;;6.50;99.90;;;;;;5011209;28;20480;-71
2023/01/21 05:18:52;;;;;;;17.83;13.50;;;6.30;99.90;;;;;;5012403;28;20117;-68
2023/01/21 05:21:19;;;;;;;17.08;12.75;;;6.10;99.90;;;;;;5012622;28;20437;-70
2023/01/21 05:23:46;;;;;;;18.48;12.27;;;6.00;99.90;;;;;;5025348;28;20092;-70
2023/01/21 05:26:14;;;;;;;16.33;12.23;;;6.30;99.90;;;;;;5012573;28;20056;-70
2023/01/21 05:28:41;;;;;;;16.95;12.50;;;6.10;99.90;;;;;;5011397;28;20440;-70
2023/01/21 05:31:08;;;;;;;14.25;11.35;;;6.30;99.90;;;;;;5012241;28;20041;-72
2023/01/21 05:33:35;;;;;;;18.35;11.75;;;6.30;99.90;;;;;;5023778;28;20041;-70
2023/01/21 05:36:03;;;;;;;17.40;11.88;;;6.30;99.90;;;;;;5012117;28;20093;-71
2023/01/21 05:38:31;;;;;;;17.33;12.40;;;6.00;99.90;;;;;;5011652;28;20378;-70
2023/01/21 05:40:59;;;;;;;16.40;11.82;;;5.60;99.90;;;;;;5010967;28;20481;-70
2023/01/21 05:43:27;;;;;;;17.55;12.65;;;5.50;99.90;;;;;;5011650;28;20129;-72
2023/01/21 05:45:57;;;;;;;16.05;12.60;;;5.80;99.90;;;;;;5023680;28;20099;-70
2023/01/21 05:48:28;;;;;;;17.63;12.60;;;6.10;99.90;;;;;;4978638;28;20042;-70
2023/01/21 05:51:12;;;;;;;19.73;14.25;;;6.20;99.90;;;;;;5032721;23;20095;-71
2023/01/21 05:53:40;;;;;;;18.33;12.15;;;6.30;99.90;;;;;;5030327;28;20033;-70
2023/01/21 05:56:13;;;;;;;18.48;13.10;;;6.40;99.90;;;;;;5013413;28;20440;-70
2023/01/21 05:58:40;;;;;;;20.52;13.38;;;6.50;99.90;;;;;;5025283;28;20139;-70
2023/01/21 06:01:10;;;;;;;20.02;13.80;;;6.40;99.90;;;;;;5016000;28;20033;-72
2023/01/21 06:03:37;;;;;;;20.92;14.07;;;6.50;99.90;;;;;;5038896;28;20053;-72
2023/01/21 06:06:07;;;;;;;20.27;12.25;;;6.30;99.90;;;;;;5036082;28;20439;-70
2023/01/21 06:08:39;;;;;;;19.17;13.65;;;6.30;99.90;;;;;;5037982;28;20045;-72
2023/01/21 06:11:06;;;;;;;18.67;14.38;;;6.20;99.90;;;;;;5036786;22;20056;-71
2023/01/21 06:13:34;;;;;;;19.85;14.07;;;6.30;99.90;;;;;;5000741;28;20050;-73
2023/01/21 06:16:07;;;;;;;17.52;12.98;;;6.40;99.90;;;;;;5005361;28;20053;-72
2023/01/21 06:18:35;;;;;;;20.35;13.25;;;6.20;99.90;;;;;;4997305;28;20062;-70
2023/01/21 06:21:04;;;;;;;17.23;12.18;;;5.90;99.90;;;;;;5011271;28;20069;-72
2023/01/21 06:23:32;;;;;;;15.55;11.93;;;5.70;99.90;;;;;;5027401;28;20034;-72
2023/01/21 06:26:00;;;;;;;14.63;11.45;;;5.80;99.90;;;;;;4992046;28;20088;-72
2023/01/21 06:28:29;;;;;;;17.77;12.00;;;6.20;99.90;;;;;;5025838;28;20053;-71
2023/01/21 06:30:56;;;;;;;18.33;11.88;;;6.40;99.90;;;;;;5026373;28;20481;-71
2023/01/21 06:33:23;;;;;;;16.27;12.30;;;6.20;99.90;;;;;;5029671;28;20097;-70
2023/01/21 06:35:51;;;;;;;15.45;10.80;;;6.30;99.90;;;;;;4991730;28;20054;-70
2023/01/21 06:38:18;;;;;;;15.43;11.18;;;6.40;99.90;;;;;;5020469;28;20035;-69
2023/01/21 06:40:45;;;;;;;15.10;10.38;;;6.50;99.90;;;;;;5025791;28;20042;-71
2023/01/21 06:43:12;;;;;;;14.30;10.45;;;6.50;99.90;;;;;;5029464;28;20057;-70
2023/01/21 06:45:40;;;;;;;13.95;10.00;;;6.60;99.90;;;;;;5000894;28;20404;-72
2023/01/21 06:48:07;;;;;;;12.65;10.30;;;6.60;99.90;;;;;;5021197;28;20365;-72
2023/01/21 06:50:35;;;;;;;18.35;10.25;;;6.70;99.90;;;;;;5008003;28;20132;-74
2023/01/21 06:53:02;;;;;;;11.57;9.15;;;6.60;99.90;;;;;;5013242;28;20394;-70
2023/01/21 06:55:30;;;;;;;13.65;9.73;;;6.60;99.90;;;;;;5010613;28;20046;-70
2023/01/21 06:57:57;;;;;;;14.18;9.77;;;6.40;99.90;;;;;;5021906;28;20111;-69
2023/01/21 07:00:24;;;;;;;11.55;9.45;;;6.50;99.90;;;;;;5023782;28;20421;-70
2023/01/21 07:02:56;;;;;;;14.60;9.50;;;6.60;99.90;;;;;;5017233;28;20041;-71
2023/01/21 07:05:23;;;;;;;12.18;9.48;;;6.60;99.90;;;;;;5028739;28;20065;-70
2023/01/21 07:07:55;;;;;;;14.20;9.60;;;6.70;99.90;;;;;;5010419;28;20061;-71
2023/01/21 07:10:23;;;;;;;13.60;9.40;;;6.60;99.90;;;;;;5009979;28;20054;-70
2023/01/21 07:12:58;;;;;;;10.55;8.55;;;6.70;99.90;;;;;;5017322;28;20586;-70
2023/01/21 07:15:29;;;;;;;14.10;9.02;;;6.70;99.90;;;;;;5017309;28;20042;-67
2023/01/21 07:17:57;;;;;;;13.63;8.65;;;6.60;99.90;;;;;;5012511;28;20061;-69
2023/01/21 07:20:25;;;;;;;13.20;9.43;;;6.50;99.90;;;;;;5012552;28;20410;-69
2023/01/21 07:22:53;;;;;;;13.75;9.27;;;6.40;99.90;;;;;;5016438;28;20503;-72
2023/01/21 07:25:20;;;;;;;9.55;7.75;;;6.30;99.90;;;;;;5032429;28;20104;-70
2023/01/21 07:27:47;;;;;;;12.80;9.10;;;6.10;99.90;;;;;;5016312;28;20389;-70
2023/01/21 07:30:17;;;;;;;12.20;8.25;;;6.10;99.90;;;;;;5002895;28;20530;-71
2023/01/21 07:32:46;;;;;;;11.27;8.07;;;6.20;99.90;;;;;;5025896;28;20069;-71
2023/01/21 07:35:13;;;;;;;13.35;8.43;;;6.20;99.90;;;;;;5013952;28;20034;-72
2023/01/21 07:37:41;;;;;;;10.57;8.23;;;6.60;99.90;;;;;;4997151;28;20148;-72
2023/01/21 07:40:09;;;;;;;9.85;7.78;;;6.60;99.90;;;;;;5032765;28;20128;-71
2023/01/21 07:42:36;;;;;;;10.57;7.82;;;6.40;99.90;;;;;;5021556;28;20460;-71
2023/01/21 07:45:04;;;;;;;11.40;7.45;;;6.50;99.90;;;;;;5012534;28;20069;-71
2023/01/21 07:47:31;;;;;;;10.02;7.53;;;6.60;99.90;;;;;;5012796;28;20409;-71
2023/01/21 07:50:03;;;;;;;10.40;7.78;;;6.40;99.90;;;;;;5013659;28;20165;-69
2023/01/21 07:52:31;;;;;;;9.25;7.20;;;6.50;99.90;;;;;;5012705;28;20132;-70
2023/01/21 07:55:00;;;;;;;12.65;8.68;;;6.40;99.90;;;;;;5009151;28;20413;-70
2023/01/21 07:57:28;;;;;;;10.85;8.70;;;6.40;99.90;;;;;;4991161;28;20076;-70
2023/01/21 07:59:55;;;;;;;10.32;7.70;;;6.30;99.90;;;;;;5013701;28;20189;-69
2023/01/21 08:02:22;;;;;;;11.45;7.97;;;6.20;99.90;;;;;;5012931;28;20041;-70
2023/01/21 08:04:50;;;;;;;11.20;7.93;;;6.30;99.90;;;;;;4995688;28;20129;-70
2023/01/21 08:07:17;;;;;;;13.70;8.82;;;6.50;99.90;;;;;;4994961;28;20050;-71
2023/01/21 08:09:44;;;;;;;11.80;8.63;;;6.40;99.90;;;;;;5011583;28;20708;-69
2023/01/21 08:12:11;;;;;;;11.52;7.57;;;6.50;99.90;;;;;;4995875;28;20050;-70
2023/01/21 08:14:40;;;;;;;14.05;8.85;;;6.50;99.90;;;;;;5011956;28;20050;-69
2023/01/21 08:17:07;;;;;;;13.48;8.82;;;6.70;99.90;;;;;;5011555;28;20078;-71
2023/01/21 08:19:34;;;;;;;9.70;7.93;;;6.80;99.90;;;;;;5006653;28;20038;-72
2023/01/21 08:22:02;;;;;;;10.18;8.20;;;7.10;99.90;;;;;;5020954;28;20069;-71
2023/01/21 08:24:29;;;;;;;10.68;8.05;;;7.00;99.90;;;;;;5006363;28;20053;-71
2023/01/21 08:26:58;;;;;;;12.10;7.40;;;6.90;99.90;;;;;;5009921;28;20099;-71
2023/01/21 08:29:26;;;;;;;9.32;7.18;;;7.00;99.90;;;;;;4986571;28;20045;-71
2023/01/21 08:31:53;;;;;;;9.52;6.70;;;7.00;99.90;;;;;;5012046;28;20050;-72
2023/01/21 08:34:20;;;;;;;11.45;7.28;;;7.00;99.90;;;;;;5013160;28;20096;-71
2023/01/21 08:36:48;;;;;;;9.60;7.70;;;7.10;99.90;;;;;;5003266;28;20038;-70
2023/01/21 08:39:15;;;;;;;8.73;7.40;;;7.30;99.90;;;;;;4995849;28;20053;-71
2023/01/21 08:41:43;;;;;;;9.05;7.10;;;7.50;99.90;;;;;;5010834;28;20401;-71
2023/01/21 08:44:13;;;;;;;11.00;8.13;;;7.60;99.90;;;;;;5007823;28;20043;-71
2023/01/21 08:46:41;;;;;;;12.35;8.63;;;7.40;99.90;;;;;;5012363;28;20100;-71
2023/01/21 08:49:08;;;;;;;9.73;7.78;;;7.60;99.90;;;;;;5008817;28;20046;-72
2023/01/21 08:51:35;;;;;;;13.85;7.70;;;7.30;99.90;;;;;;5005978;28;20137;-73
2023/01/21 08:54:07;;;;;;;9.65;7.20;;;7.40;99.90;;;;;;5011148;28;20041;-70
2023/01/21 08:56:40;;;;;;;8.77;6.07;;;7.70;99.90;;;;;;5010577;28;20121;-73
2023/01/21 08:59:09;;;;;;;8.27;6.88;;;7.70;99.90;;;;;;4988720;28;20046;-74
2023/01/21 09:01:39;;;;;;;14.80;10.20;;;7.80;99.90;;;;;;4989680;28;20101;-70
2023/01/21 09:04:09;;;;;;;31.73;19.13;;;8.10;99.90;;;;;;5005464;28;20601;-71
2023/01/21 09:06:37;;;;;;;8.90;7.13;;;8.50;99.90;;;;;;5003074;28;20045;-73
2023/01/21 09:09:10;;;;;;;6.80;5.70;;;8.10;99.90;;;;;;4988583;28;20124;-69
2023/01/21 09:11:43;;;;;;;7.82;5.30;;;8.20;99.90;;;;;;4983825;28;20097;-74
2023/01/21 09:14:11;;;;;;;8.75;5.70;;;8.40;99.90;;;;;;4983837;28;20046;-69
2023/01/21 09:16:39;;;;;;;7.85;5.72;;;8.00;99.90;;;;;;4968907;28;20042;-69
2023/01/21 09:19:06;;;;;;;11.65;6.40;;;7.60;99.90;;;;;;4968288;28;20447;-70
2023/01/21 09:21:33;;;;;;;8.80;6.38;;;7.70;99.90;;;;;;4969009;28;20478;-75
2023/01/21 09:24:01;;;;;;;7.07;6.03;;;7.90;99.90;;;;;;5006914;23;20045;-74
2023/01/21 09:26:28;;;;;;;7.40;6.10;;;8.20;99.90;;;;;;5019328;28;20049;-71
2023/01/21 09:28:58;;;;;;;7.28;5.60;;;7.80;99.90;;;;;;5022188;28;20084;-72
2023/01/21 09:31:28;;;;;;;12.98;9.00;;;7.40;99.90;;;;;;5017242;28;20988;-70
2023/01/21 09:33:59;;;;;;;11.07;7.90;;;7.30;99.90;;;;;;5018039;28;20044;-74
2023/01/21 09:36:30;;;;;;;8.25;6.15;;;7.30;99.90;;;;;;5013836;28;20034;-70
2023/01/21 09:38:58;;;;;;;8.18;6.25;;;7.00;99.90;;;;;;5006653;28;20045;-74
2023/01/21 09:41:34;;;;;;;8.35;6.18;;;7.20;99.90;;;;;;5006376;28;20068;-71
2023/01/21 09:44:26;;;;;;;7.88;6.10;;;7.40;99.90;;;;;;4995881;28;20115;-73
2023/01/21 09:47:05;;;;;;;7.95;6.07;;;7.20;99.90;;;;;;5010794;28;20082;-69
2023/01/21 09:49:40;;;;;;;9.77;6.40;;;7.10;99.90;;;;;;5007390;28;20393;-70
2023/01/21 09:52:40;;;;;;;8.82;6.20;;;7.50;99.90;;;;;;5014537;28;20129;-71
2023/01/21 09:55:26;;;;;;;8.52;6.00;;;7.60;99.90;;;;;;5015593;28;20038;-71
2023/01/21 09:58:05;;;;;;;9.20;6.97;;;7.60;99.90;;;;;;5016871;28;20138;-72
2023/01/21 10:00:39;;;;;;;8.23;6.27;;;7.30;99.90;;;;;;5020045;28;20390;-72
2023/01/21 10:03:22;;;;;;;9.27;6.53;;;7.10;99.90;;;;;;5009732;28;20060;-75
2023/01/21 10:06:11;;;;;;;9.02;6.60;;;7.10;99.90;;;;;;5033343;28;20408;-72
2023/01/21 10:08:59;;;;;;;8.63;6.55;;;7.30;99.90;;;;;;5027140;28;20065;-71
2023/01/21 10:11:35;;;;;;;10.50;6.78;;;7.30;99.90;;;;;;5016073;28;20061;-71
2023/01/21 10:14:21;;;;;;;10.00;7.30;;;7.10;99.90;;;;;;4996011;28;20093;-74
2023/01/21 10:17:11;;;;;;;11.63;7.97;;;7.20;99.90;;;;;;5002267;28;20142;-75
2023/01/21 10:19:45;;;;;;;12.65;8.07;;;7.10;99.90;;;;;;4991991;28;20113;-74
2023/01/21 10:22:20;;;;;;;9.63;7.78;;;7.40;99.90;;;;;;4991220;28;20050;-72
2023/01/21 10:24:53;;;;;;;11.13;8.65;;;7.50;99.90;;;;;;4998588;28;20084;-69
2023/01/21 10:27:22;;;;;;;12.02;8.77;;;7.50;99.90;;;;;;5002846;28;20355;-73
2023/01/21 10:29:55;;;;;;;12.03;7.83;;;7.40;99.90;;;;;;5002789;28;20033;-73
2023/01/21 10:32:29;;;;;;;10.25;8.07;;;7.20;99.90;;;;;;5002142;28;21273;-71
2023/01/21 10:34:57;;;;;;;11.32;9.20;;;7.30;99.90;;;;;;5009145;28;20457;-71
2023/01/21 10:37:42;;;;;;;10.93;8.77;;;7.40;99.90;;;;;;4996009;28;20042;-71
2023/01/21 10:40:10;;;;;;;12.18;8.65;;;7.70;99.90;;;;;;4981281;28;20051;-72
2023/01/21 10:43:00;;;;;;;10.25;8.65;;;7.60;99.90;;;;;;4978558;28;20053;-73
2023/01/21 10:45:54;;;;;;;11.27;8.15;;;7.40;99.90;;;;;;4985872;28;20043;-71
2023/01/21 10:48:26;;;;;;;8.95;6.70;;;7.30;99.90;;;;;;5007932;28;20054;-73
2023/01/21 10:51:30;;;;;;;44.13;26.23;;;7.40;99.90;;;;;;5008750;28;20046;-73
2023/01/21 10:54:46;;;;;;;79.93;42.08;;;7.90;99.90;;;;;;5023965;28;20108;-70
2023/01/21 10:57:47;;;;;;;12.48;10.82;;;8.30;99.90;;;;;;4939082;28;20528;-72
2023/01/21 11:00:37;;;;;;;11.82;7.80;;;8.20;99.90;;;;;;4987797;28;20057;-72
2023/01/21 11:03:15;;;;;;;9.23;7.53;;;8.00;99.90;;;;;;5008118;28;20432;-71
2023/01/21 11:05:44;;;;;;;10.73;8.00;;;8.10;99.90;;;;;;4987161;28;20173;-71
2023/01/21 11:08:19;;;;;;;11.63;7.10;;;8.10;99.90;;;;;;4993190;28;20034;-69
2023/01/21 11:10:54;;;;;;;14.15;7.82;;;8.10;99.90;;;;;;4985482;28;20410;-71
2023/01/21 11:13:30;;;;;;;10.32;8.02;;;8.40;99.90;;;;;;4988755;28;20065;-74
2023/01/21 11:16:03;;;;;;;11.13;7.95;;;8.10;99.90;;;;;;4996571;28;20073;-76
2023/01/21 11:18:47;;;;;;;9.50;7.53;;;8.20;99.90;;;;;;4996785;28;20131;-76
2023/01/21 11:21:21;;;;;;;10.52;7.43;;;8.40;99.90;;;;;;5020775;28;20042;-74
2023/01/21 11:24:02;;;;;;;10.00;7.63;;;8.50;99.90;;;;;;4986707;28;20058;-74
2023/01/21 11:26:37;;;;;;;19.33;11.38;;;8.50;99.90;;;;;;4994512;28;20050;-69
2023/01/21 11:29:22;;;;;;;16.48;10.10;;;8.50;99.90;;;;;;4994457;28;20072;-68
2023/01/21 11:32:20;;;;;;;13.65;8.70;;;8.50;99.90;;;;;;4998161;28;20061;-71
2023/01/21 11:35:18;;;;;;;9.93;8.07;;;8.40;99.90;;;;;;4988234;28;20434;-75
2023/01/21 11:37:56;;;;;;;14.05;10.15;;;8.40;99.90;;;;;;4989252;28;20371;-75
2023/01/21 11:40:36;;;;;;;12.90;10.35;;;8.00;99.90;;;;;;4999120;28;20058;-75
2023/01/21 11:43:57;;;;;;;13.65;9.25;;;7.70;99.90;;;;;;4988751;28;20046;-73
2023/01/21 11:46:42;;;;;;;10.77;8.18;;;7.70;99.90;;;;;;4998795;28;20095;-77
2023/01/21 11:49:10;;;;;;;10.68;7.57;;;7.60;99.90;;;;;;4995872;28;20543;-76
2023/01/21 11:51:39;;;;;;;10.73;7.82;;;7.60;99.90;;;;;;4991043;28;20516;-74
2023/01/21 11:54:07;;;;;;;8.38;7.10;;;7.60;99.90;;;;;;4985034;28;20059;-74
2023/01/21 11:56:35;;;;;;;10.40;7.88;;;7.80;99.90;;;;;;4994284;28;20038;-70
2023/01/21 11:59:41;;;;;;;9.88;7.20;;;8.00;99.90;;;;;;5006798;28;20045;-75
2023/01/21 12:02:21;;;;;;;12.55;7.50;;;7.90;99.90;;;;;;4995158;28;20046;-74
2023/01/21 12:05:02;;;;;;;10.40;7.25;;;7.60;99.90;;;;;;4994406;28;20046;-76
2023/01/21 12:07:40;;;;;;;8.85;7.18;;;7.60;99.90;;;;;;4996254;28;20488;-74
2023/01/21 12:10:11;;;;;;;10.30;7.55;;;7.50;99.90;;;;;;4995700;28;20054;-72
2023/01/21 12:13:02;;;;;;;9.90;7.25;;;7.70;99.90;;;;;;5009998;23;20137;-72
2023/01/21 12:15:35;;;;;;;12.82;8.25;;;8.00;99.90;;;;;;5005293;28;20371;-76
2023/01/21 12:18:19;;;;;;;12.45;9.85;;;7.80;99.90;;;;;;4990073;28;20063;-73
2023/01/21 12:21:02;;;;;;;16.65;12.10;;;8.00;99.90;;;;;;4972311;28;20161;-73
2023/01/21 12:24:08;;;;;;;8.13;6.90;;;8.00;99.90;;;;;;4992694;28;20042;-73
2023/01/21 12:26:44;;;;;;;13.50;7.55;;;7.60;99.90;;;;;;5003894;28;20064;-69
2023/01/21 12:29:29;;;;;;;9.50;7.78;;;7.70;99.90;;;;;;4985395;28;20042;-70
2023/01/21 12:32:12;;;;;;;10.35;7.85;;;7.80;99.90;;;;;;4973392;28;20141;-72
2023/01/21 12:34:54;;;;;;;10.05;7.15;;;7.80;99.90;;;;;;4990783;28;20067;-74
2023/01/21 12:37:30;;;;;;;10.73;8.38;;;7.80;99.90;;;;;;4977208;28;20132;-74
2023/01/21 12:40:13;;;;;;;9.18;7.40;;;8.10;99.90;;;;;;4976905;28;20046;-74
2023/01/21 12:42:47;;;;;;;9.90;7.97;;;7.80;99.90;;;;;;4978553;28;20053;-76
2023/01/21 12:45:28;;;;;;;9.57;7.47;;;7.70;99.90;;;;;;4981974;28;20050;-75
2023/01/21 12:48:17;;;;;;;12.23;7.93;;;7.70;99.90;;;;;;4978393;28;20569;-77
2023/01/21 12:51:21;;;;;;;9.13;6.85;;;7.80;99.90;;;;;;4995348;28;20050;-74
2023/01/21 12:54:33;;;;;;;8.82;7.72;;;7.70;99.90;;;;;;4978576;28;20070;-73
2023/01/21 12:58:02;;;;;;;9.18;6.68;;;7.60;99.90;;;;;;4980302;28;20093;-72
2023/01/21 13:00:41;;;;;;;10.93;7.70;;;7.50;99.90;;;;;;4947517;28;20047;-71
2023/01/21 13:03:49;;;;;;;7.70;6.65;;;7.70;99.90;;;;;;4943872;29;20051;-74
2023/01/21 13:06:41;;;;;;;7.97;6.80;;;7.80;99.90;;;;;;4976648;28;20046;-70
2023/01/21 13:09:55;;;;;;;7.80;6.63;;;7.90;99.90;;;;;;4972502;28;20478;-76
2023/01/21 13:12:25;;;;;;;8.32;6.68;;;7.70;99.90;;;;;;4976323;28;20084;-76
2023/01/21 13:15:03;;;;;;;8.77;6.00;;;7.90;99.90;;;;;;4996830;28;20058;-72
2023/01/21 13:17:39;;;;;;;8.15;5.90;;;7.80;99.90;;;;;;4992661;28;20042;-68
2023/01/21 13:20:33;;;;;;;6.90;5.75;;;7.60;99.90;;;;;;4970319;28;20046;-73
2023/01/21 13:23:24;;;;;;;7.80;6.55;;;7.50;99.90;;;;;;4971206;28;20101;-75
2023/01/21 13:26:28;;;;;;;8.90;6.47;;;7.70;99.90;;;;;;4982812;28;20047;-76